Latest Weather Observations for Wilsons Promontory

IDV60801

Issued at 10:12 pm EST Monday 15 July 2024 (issued every 10 minutes, with the page automatically refreshed every 10 minutes)

About weather observations | Map of weather stations | Latest weather observations for VIC | Other Formats
Station Details ID: 085096 Name: WILSONS PROMONTORY LIGHTHOUSE Lat: -39.13 Lon: 146.42 Height: 95.0 m
Data from the previous 72 hours. | See also: Recent months at Wilsons Promontory
Date/Time
EST
Temp
°C
App
Temp
°C
Dew
Point
°C
Rel
Hum
%
Delta-T
°C
Wind Press
QNH
hPa
Press
MSL
hPa
Rain since
9am
mm
Dir  Spd
km/h
Gust
km/h
Spd
kts
Gust
kts
15/10:00pm 12.0 0.9 10.2 89 0.9 SSE 59 69 32 37 995.3 995.3 2.4
15/09:30pm 11.9 -0.2 10.8 93 0.6 SSE 65 76 35 41 994.0 994.1 2.4
15/09:26pm 11.8 0.5 10.9 94 0.5 SSE 61 72 33 39 993.8 - 2.4
15/09:00pm 12.3 2.6 11.7 96 0.3 S 54 65 29 35 992.5 992.6 2.4
15/08:43pm 12.2 7.4 11.6 96 0.3 SSW 28 61 15 33 991.7 991.8 2.2
15/08:42pm 12.3 6.2 11.7 96 0.3 S 35 61 19 33 991.6 - 2.2
15/08:40pm 12.3 8.3 11.7 96 0.3 SW 24 52 13 28 991.5 991.6 2.2
15/08:30pm 12.1 8.0 11.3 95 0.4 WSW 24 39 13 21 991.1 991.2 2.2
15/08:20pm 12.2 6.6 11.4 95 0.4 W 32 76 17 41 990.8 - 2.0
15/08:19pm 12.2 3.1 11.4 95 0.4 WSW 50 76 27 41 990.8 990.9 2.0
15/08:18pm 12.2 5.2 11.4 95 0.4 SW 39 80 21 43 990.9 - 2.0
15/08:17pm 12.2 1.8 11.4 95 0.4 SW 57 80 31 43 990.9 991.0 2.0
15/08:03pm 12.1 0.9 11.2 94 0.5 SW 61 107 33 58 990.4 - 2.0
15/08:02pm 12.1 -3.3 11.2 94 0.5 SW 83 107 45 58 990.4 990.5 2.0
15/08:01pm 12.0 -4.2 10.9 93 0.6 SW 87 107 47 58 990.2 990.3 2.0
15/08:00pm 11.9 -5.1 10.8 93 0.6 SW 91 107 49 58 989.9 990.0 2.0
15/07:30pm 11.8 -6.0 10.7 93 0.6 WSW 95 109 51 59 989.8 989.9 2.0
15/07:00pm 11.7 -6.3 10.8 94 0.5 WSW 96 111 52 60 990.0 990.1 1.8
15/06:30pm 11.3 -6.2 10.4 94 0.5 WSW 93 111 50 60 990.2 990.3 1.6
15/06:00pm 11.7 -6.2 10.4 92 0.7 WSW 95 115 51 62 990.2 990.3 1.0
15/05:30pm 11.5 -6.5 10.1 91 0.7 WSW 95 117 51 63 990.2 990.3 0.6
15/05:00pm 11.6 -4.8 10.2 91 0.7 WSW 87 109 47 59 990.1 990.2 0.4
15/04:30pm 11.8 -3.4 9.7 87 1.1 WSW 80 104 43 56 990.8 990.9 0.0
15/04:00pm 11.9 -4.8 9.3 84 1.3 WSW 87 113 47 61 990.5 990.6 0.0
15/03:30pm 11.9 -3.8 9.5 85 1.2 WSW 82 111 44 60 990.9 991.0 0.0
15/03:00pm 11.8 -2.7 9.5 86 1.2 WSW 76 96 41 52 991.6 991.7 0.0
15/02:30pm 11.5 -3.9 9.2 86 1.2 WSW 80 109 43 59 991.7 991.8 0.0
15/02:00pm 11.7 -2.5 9.3 85 1.2 WSW 74 106 40 57 992.0 992.1 0.0
15/01:30pm 11.6 -3.0 9.3 86 1.2 WSW 76 96 41 52 992.8 992.9 0.0
15/01:00pm 11.5 -2.3 9.2 86 1.2 WSW 72 100 39 54 993.5 993.6 0.0
15/12:30pm 11.5 -3.2 8.9 84 1.3 WSW 76 104 41 56 993.9 994.0 0.0
15/12:00pm 11.2 -2.7 8.8 85 1.2 WSW 72 93 39 50 995.1 995.1 0.0
15/11:30am 11.2 -3.2 8.4 83 1.4 WSW 74 100 40 54 995.8 995.8 0.0
15/11:00am 11.1 -3.3 8.5 84 1.3 WSW 74 93 40 50 996.3 996.3 0.0
15/10:30am 10.2 -3.5 8.1 87 1.0 WSW 70 93 38 50 996.6 996.6 0.0
15/10:00am 10.5 -3.6 8.1 85 1.2 WSW 72 96 39 52 997.1 997.1 0.0
15/09:30am 10.9 -3.0 7.6 80 1.6 WSW 70 98 38 53 997.0 997.0 0.0
15/09:00am 10.6 -3.3 7.5 81 1.5 WSW 70 98 38 53 997.3 997.3 0.2
15/08:30am 10.5 -4.5 7.4 81 1.5 WSW 76 98 41 53 997.5 997.5 0.2
15/08:00am 10.5 -5.4 7.0 79 1.7 WSW 80 104 43 56 997.4 997.4 0.2
15/07:30am 10.6 -5.9 6.7 77 1.8 WSW 83 113 45 61 997.5 997.5 0.2
15/07:00am 10.6 -3.9 6.6 76 1.9 WSW 72 100 39 54 997.9 998.0 0.2
15/06:30am 10.4 -3.5 6.4 76 1.9 WSW 69 91 37 49 998.8 998.9 0.2
15/06:00am 10.4 -3.5 6.4 76 1.9 W 69 93 37 50 999.0 999.1 0.2
15/05:31am 9.8 -3.8 6.2 78 1.7 W 67 85 36 46 999.4 999.5 0.2
15/05:30am 10.0 -4.0 6.3 78 1.7 W 69 85 37 46 999.2 999.3 0.2
15/05:29am 9.7 -3.6 5.9 77 1.8 W 65 85 35 46 999.3 - 0.2
15/05:11am 10.0 -7.1 6.0 76 1.9 WSW 85 106 46 57 999.0 - 0.2
15/05:10am 10.0 -5.0 6.0 76 1.9 WSW 74 106 40 57 999.0 999.1 0.2
15/05:00am 9.4 -3.4 6.3 81 1.5 W 63 89 34 48 999.9 1000.0 0.2
15/04:54am 9.5 -2.9 6.4 81 1.4 W 61 95 33 51 999.8 - 0.2
15/04:53am 9.4 -3.5 6.1 80 1.5 W 63 95 34 51 999.9 - 0.2
15/04:44am 8.9 -7.3 5.6 80 1.5 WSW 80 111 43 60 999.7 999.8 0.2
15/04:43am 9.0 -7.2 5.7 80 1.5 WSW 80 111 43 60 999.8 999.9 0.2
15/04:30am 8.9 -9.2 6.3 84 1.2 WSW 91 117 49 63 999.0 999.1 0.0
15/04:00am 9.6 -7.9 5.8 77 1.8 WSW 87 106 47 57 1000.0 1000.1 0.0
15/03:56am 9.4 -6.9 5.2 75 1.9 WSW 80 109 43 59 1000.1 - 0.0
15/03:55am 9.4 -8.2 5.2 75 1.9 WSW 87 109 47 59 1000.1 1000.2 0.0
15/03:54am 9.7 -5.3 6.1 78 1.7 WSW 74 109 40 59 1000.5 - 0.0
15/03:53am 9.7 -8.1 6.1 78 1.7 WSW 89 109 48 59 1000.5 1000.6 0.0
15/03:30am 9.2 -9.8 5.8 79 1.6 WSW 95 119 51 64 999.6 999.7 0.0
15/03:23am 9.3 -9.9 5.9 79 1.6 WSW 96 115 52 62 1000.6 - 0.0
15/03:22am 9.3 -9.9 5.9 79 1.6 WSW 96 115 52 62 1000.6 1000.7 0.0
15/03:13am 10.0 -10.1 5.2 72 2.2 WSW 100 111 54 60 1000.0 - 0.0
15/03:12am 10.0 -8.4 5.2 72 2.2 WSW 91 111 49 60 1000.0 1000.1 0.0
15/03:00am 10.0 -6.4 4.6 69 2.4 WSW 80 98 43 53 1000.9 1001.0 0.0
15/02:57am 10.0 -5.7 4.2 67 2.6 WSW 76 109 41 59 1001.0 - 0.0
15/02:51am 10.0 -10.0 3.7 65 2.8 WSW 98 117 53 63 1000.8 - 0.0
15/02:50am 10.0 -9.6 3.7 65 2.8 WSW 96 117 52 63 1000.8 1000.9 0.0
15/02:47am 10.0 -11.9 2.6 60 3.2 WSW 107 117 58 63 1000.3 - 0.0
15/02:46am 10.0 -8.9 2.6 60 3.2 WSW 91 117 49 63 1000.3 1000.4 0.0
15/02:33am 9.9 -7.4 4.9 71 2.3 WSW 85 104 46 56 1001.7 - 0.0
15/02:32am 9.9 -7.0 4.9 71 2.3 WSW 83 104 45 56 1001.7 1001.8 0.0
15/02:30am 9.9 -6.9 4.5 69 2.4 WSW 82 104 44 56 1001.1 1001.2 0.0
15/02:29am 10.0 -6.5 4.2 67 2.6 WSW 80 104 43 56 1001.2 1001.3 0.0
15/02:23am 10.1 -3.3 5.5 73 2.1 W 65 106 35 57 1001.9 - 0.0
15/02:22am 10.1 -6.1 5.5 73 2.1 WSW 80 106 43 57 1001.9 1002.0 0.0
15/02:18am 10.2 -7.6 4.1 66 2.7 WSW 87 106 47 57 1001.6 - 0.0
15/02:17am 10.2 -6.3 4.1 66 2.7 WSW 80 106 43 57 1001.6 1001.7 0.0
15/02:16am 10.1 -8.1 4.0 66 2.7 WSW 89 106 48 57 1001.2 - 0.0
15/02:15am 10.1 -5.7 4.0 66 2.7 WSW 76 106 41 57 1001.2 1001.3 0.0
15/02:00am 9.7 -3.8 5.1 73 2.1 WSW 65 85 35 46 1002.4 1002.5 0.0
15/01:58am 9.9 -3.8 5.5 74 2.0 W 67 85 36 46 1002.5 - 0.0
15/01:57am 9.9 -4.2 5.5 74 2.0 WSW 69 85 37 46 1002.5 1002.6 0.0
15/01:51am 9.7 -4.6 4.9 72 2.2 W 69 102 37 55 1002.4 - 0.0
15/01:50am 9.7 -5.5 4.9 72 2.2 WSW 74 102 40 55 1002.4 1002.5 0.0
15/01:30am 10.1 -8.5 4.0 66 2.7 WSW 91 113 49 61 1001.4 1001.5 0.0
15/01:00am 10.2 -9.3 3.0 61 3.1 WSW 95 113 51 61 1001.5 1001.6 0.0
15/12:31am 10.0 -9.6 2.8 61 3.1 WSW 95 113 51 61 1002.4 1002.5 0.0
15/12:30am 10.0 -9.8 2.6 60 3.2 WSW 96 113 52 61 1002.3 1002.4 0.0
15/12:29am 9.9 -10.3 2.5 60 3.2 WSW 98 117 53 63 1002.3 - 0.0
15/12:28am 9.9 -10.3 2.5 60 3.2 WSW 98 117 53 63 1002.3 1002.4 0.0
15/12:20am 10.0 -12.0 2.1 58 3.4 WSW 107 117 58 63 1001.5 - 0.0
15/12:03am 9.9 -9.9 1.5 56 3.5 WSW 95 115 51 62 1001.7 1001.8 0.0
15/12:01am 9.9 -8.0 3.6 65 2.8 WSW 87 109 47 59 1002.7 - 0.0
15/12:00am 9.9 -8.0 3.6 65 2.8 WSW 87 109 47 59 1002.7 1002.8 0.0
 
Date/Time
EST
Temp
°C
App
Temp
°C
Dew
Point
°C
Rel
Hum
%
Delta-T
°C
Wind Press
QNH
hPa
Press
MSL
hPa
Rain since
9am
mm
Dir  Spd
km/h
Gust
km/h
Spd
kts
Gust
kts
14/11:32pm 9.9 -8.3 3.9 66 2.7 WSW 89 107 48 58 1003.3 - 0.0
14/11:30pm 10.0 -8.2 4.2 67 2.6 WSW 89 107 48 58 1003.3 1003.4 0.0
14/11:02pm 9.8 -8.4 4.2 68 2.5 WSW 89 107 48 58 1003.4 - 0.0
14/11:01pm 9.8 -8.4 4.2 68 2.5 WSW 89 107 48 58 1003.4 1003.5 0.0
14/11:00pm 9.7 -8.5 4.3 69 2.4 WSW 89 106 48 57 1003.9 1004.0 0.0
14/10:32pm 9.9 -7.5 4.1 67 2.6 WSW 85 104 46 56 1003.8 - 0.0
14/10:31pm 9.9 -7.5 4.1 67 2.6 WSW 85 104 46 56 1003.8 1003.9 0.0
14/10:30pm 10.0 -6.9 4.8 70 2.3 WSW 83 100 45 54 1004.4 1004.5 0.0
14/10:14pm 9.9 -8.7 3.9 66 2.7 WSW 91 109 49 59 1003.9 - 0.0
14/10:08pm 9.9 -9.4 4.3 68 2.5 WSW 95 111 51 60 1004.3 1004.4 0.0
14/10:00pm 9.7 -10.7 3.7 66 2.6 WSW 100 111 54 60 1003.7 1003.8 0.0
14/09:44pm 9.8 -10.6 3.5 65 2.8 WSW 100 109 54 59 1004.2 - 0.0
14/09:39pm 9.9 -8.0 3.9 66 2.7 WSW 87 106 47 57 1004.5 1004.6 0.0
14/09:30pm 10.0 -5.6 4.6 69 2.4 WSW 76 96 41 52 1005.1 1005.1 0.0
14/09:06pm 9.8 -7.1 4.2 68 2.5 WSW 82 100 44 54 1005.2 - 0.0
14/09:05pm 9.8 -7.1 4.2 68 2.5 WSW 82 100 44 54 1005.3 1005.3 0.0
14/09:00pm 9.8 -8.8 4.0 67 2.6 WSW 91 102 49 55 1005.3 1005.3 0.0
14/08:42pm 9.8 -6.8 3.8 66 2.6 WSW 80 100 43 54 1005.1 - 0.0
14/08:41pm 9.8 -6.8 3.8 66 2.6 WSW 80 100 43 54 1005.2 1005.2 0.0
14/08:30pm 9.8 -7.4 3.5 65 2.8 WSW 83 98 45 53 1005.3 1005.3 0.0
14/08:15pm 9.7 -6.4 4.1 68 2.5 WSW 78 96 42 52 1005.9 - 0.0
14/08:14pm 9.7 -6.4 4.1 68 2.5 WSW 78 96 42 52 1005.9 1005.9 0.0
14/08:00pm 9.8 -7.7 3.8 66 2.7 WSW 85 96 46 52 1006.1 1006.1 0.0
14/07:33pm 10.0 -5.3 4.6 69 2.4 WSW 74 93 40 50 1006.4 1006.5 0.0
14/07:30pm 9.8 -6.0 3.8 66 2.6 WSW 76 93 41 50 1006.3 1006.4 0.0
14/07:21pm 9.8 -6.0 3.8 66 2.6 WSW 76 95 41 51 1006.3 - 0.0
14/07:20pm 9.8 -6.0 3.8 66 2.6 WSW 76 95 41 51 1006.3 1006.4 0.0
14/07:00pm 9.9 -5.8 4.3 68 2.5 WSW 76 93 41 50 1006.6 1006.7 0.0
14/06:30pm 9.8 -4.7 3.5 65 2.8 WSW 69 87 37 47 1006.8 1006.9 0.0
14/06:26pm 9.8 -5.2 4.0 67 2.6 WSW 72 91 39 49 1007.0 - 0.0
14/06:25pm 9.8 -5.2 4.0 67 2.6 WSW 72 91 39 49 1007.0 1007.1 0.0
14/06:00pm 9.8 -5.3 3.5 65 2.8 WSW 72 89 39 48 1007.0 1007.1 0.0
14/05:30pm 9.9 -6.0 3.0 62 3.0 WSW 76 96 41 52 1006.8 1006.9 0.0
14/05:27pm 9.9 -5.2 3.6 65 2.8 WSW 72 96 39 52 1006.8 - 0.0
14/05:26pm 9.9 -5.2 3.6 65 2.8 WSW 72 96 39 52 1006.8 1006.9 0.0
14/05:00pm 9.9 -5.2 3.6 65 2.8 WSW 72 85 39 46 1007.3 1007.4 0.0
14/04:30pm 9.9 -4.5 3.9 66 2.7 WSW 69 89 37 48 1007.6 1007.7 0.0
14/04:07pm 9.9 -4.6 3.6 65 2.8 WSW 69 87 37 47 1007.3 - 0.0
14/04:06pm 9.9 -4.6 3.6 65 2.8 WSW 69 87 37 47 1007.3 1007.4 0.0
14/04:00pm 9.8 -5.3 3.5 65 2.8 WSW 72 85 39 46 1007.5 1007.6 0.0
14/03:30pm 10.0 -5.4 4.0 66 2.7 WSW 74 85 40 46 1007.6 1007.7 0.0
14/03:00pm 9.7 -6.8 4.1 68 2.5 WSW 80 91 43 49 1007.2 1007.3 0.0
14/02:30pm 9.7 -6.3 4.7 71 2.2 WSW 78 91 42 49 1007.5 1007.6 0.0
14/02:00pm 9.7 -5.9 4.9 72 2.2 WSW 76 89 41 48 1007.7 1007.8 0.0
14/01:41pm 9.7 -6.0 4.3 69 2.4 WSW 76 95 41 51 1007.6 - 0.0
14/01:40pm 9.7 -6.0 4.3 69 2.4 WSW 76 95 41 51 1007.6 1007.7 0.0
14/01:30pm 9.6 -6.0 4.6 71 2.2 SW 76 87 41 47 1007.8 1007.9 0.0
14/01:00pm 9.6 -6.1 4.4 70 2.3 SW 76 87 41 47 1007.9 1008.0 0.0
14/12:30pm 9.5 -5.5 3.9 68 2.5 SW 72 87 39 47 1008.2 1008.3 0.0
14/12:00pm 9.5 -5.6 5.3 75 1.9 SW 74 89 40 48 1009.0 1009.1 0.0
14/11:46am 8.8 -5.6 4.0 72 2.1 WSW 69 87 37 47 1009.8 - 0.0
14/11:44am 8.8 -5.7 3.8 71 2.2 WSW 69 87 37 47 1009.8 1009.9 0.0
14/11:30am 9.5 -5.1 3.9 68 2.5 WSW 70 83 38 45 1009.4 1009.5 0.0
14/11:05am 9.4 -2.9 3.4 66 2.6 SW 57 76 31 41 1009.8 1009.9 0.0
14/11:02am 9.5 -2.9 4.9 73 2.1 SW 59 80 32 43 1010.2 1010.3 0.0
14/11:01am 9.3 -3.5 4.3 71 2.2 SW 61 80 33 43 1010.5 - 0.0
14/11:00am 9.3 -3.5 4.3 71 2.2 SW 61 80 33 43 1010.5 1010.6 0.0
14/10:59am 9.5 -3.7 4.5 71 2.2 SW 63 80 34 43 1010.5 1010.6 0.0
14/10:52am 9.5 -0.6 3.7 67 2.5 SW 46 74 25 40 1010.2 1010.3 0.0
14/10:50am 9.7 0.3 4.3 69 2.4 SW 43 70 23 38 1010.2 1010.3 0.0
14/10:48am 9.8 2.8 4.0 67 2.6 SSW 30 69 16 37 1010.2 - 0.0
14/10:47am 9.8 0.1 4.0 67 2.6 SW 44 69 24 37 1010.2 1010.3 0.0
14/10:46am 9.7 -0.4 3.9 67 2.6 SW 46 69 25 37 1010.5 1010.6 0.0
14/10:38am 9.5 -2.2 3.5 66 2.6 SW 54 72 29 39 1010.3 - 0.0
14/10:37am 9.5 -0.6 3.5 66 2.6 SW 46 72 25 39 1010.3 1010.4 0.0
14/10:35am 9.5 -3.5 3.5 66 2.6 SW 61 74 33 40 1010.3 - 0.0
14/10:34am 9.5 -1.4 3.5 66 2.6 SW 50 74 27 40 1010.3 1010.4 0.0
14/10:31am 9.5 0.7 3.5 66 2.6 SSW 39 76 21 41 1010.3 - 0.0
14/10:30am 9.5 -2.2 3.5 66 2.6 SW 54 76 29 41 1010.3 1010.4 0.0
14/10:29am 9.5 -2.2 3.3 65 2.7 SW 54 76 29 41 1010.4 1010.5 0.0
14/10:24am 9.6 -5.1 2.7 62 3.0 SW 69 80 37 43 1010.2 - 0.0
14/10:23am 9.6 -1.8 2.7 62 3.0 SW 52 80 28 43 1010.2 1010.3 0.0
14/10:06am 9.5 -0.7 3.3 65 2.7 SW 46 82 25 44 1010.5 - 0.0
14/10:05am 9.5 -4.7 3.3 65 2.7 SW 67 82 36 44 1010.5 1010.6 0.0
14/10:00am 9.4 -6.0 3.8 68 2.5 SW 74 83 40 45 1010.2 1010.3 0.0
14/09:34am 9.3 -7.7 3.5 67 2.5 SW 82 87 44 47 1009.7 - 0.0
14/09:32am 9.4 -4.3 4.0 69 2.4 SW 65 87 35 47 1009.8 1009.9 0.0
14/09:30am 9.4 -4.0 3.4 66 2.6 SW 63 83 34 45 1010.1 1010.2 0.0
14/09:28am 9.3 -1.2 3.7 68 2.4 SSW 48 83 26 45 1010.1 - 0.0
14/09:27am 9.3 -5.2 3.7 68 2.4 SW 69 83 37 45 1010.1 1010.2 0.0
14/09:00am 9.3 -5.7 4.1 70 2.3 SW 72 95 39 51 1010.1 1010.2 2.0
14/08:32am 8.7 -5.1 3.1 68 2.4 WSW 65 98 35 53 1010.9 - 2.0
14/08:31am 8.7 -6.5 3.1 68 2.4 SW 72 98 39 53 1010.9 1011.0 2.0
14/08:30am 8.5 -7.1 2.7 67 2.5 SW 74 98 40 53 1010.9 1011.0 2.0
14/08:29am 8.4 -7.7 1.8 63 2.7 SW 76 98 41 53 1010.8 1010.9 2.0
14/08:27am 8.6 -9.9 2.6 66 2.5 SW 89 98 48 53 1009.7 - 2.0
14/08:26am 8.6 -7.8 2.6 66 2.5 SW 78 98 42 53 1009.7 1009.8 2.0
14/08:00am 9.2 -4.8 2.3 62 2.9 SW 65 83 35 45 1010.3 1010.4 2.0
14/07:51am 9.1 -5.0 1.8 60 3.0 SW 65 83 35 45 1010.2 - 2.0
14/07:50am 9.1 -5.0 1.8 60 3.0 SW 65 83 35 45 1010.2 1010.3 2.0
14/07:38am 9.4 -4.4 3.2 65 2.7 SW 65 83 35 45 1010.6 - 2.0
14/07:37am 9.4 -3.3 3.2 65 2.7 SW 59 83 32 45 1010.6 1010.7 2.0
14/07:36am 9.3 1.2 3.3 66 2.6 SSW 35 83 19 45 1010.4 - 2.0
14/07:35am 9.3 -2.4 3.3 66 2.6 SW 54 83 29 45 1010.4 1010.5 2.0
14/07:34am 9.3 -2.9 2.9 64 2.7 SW 56 83 30 45 1010.5 1010.6 2.0
14/07:31am 9.2 -6.1 2.3 62 2.9 SW 72 83 39 45 1010.4 - 2.0
14/07:30am 9.2 -2.7 2.3 62 2.9 SW 54 83 29 45 1010.4 1010.5 2.0
14/07:24am 9.3 0.3 2.4 62 2.9 WSW 39 82 21 44 1010.4 - 2.0
14/07:23am 9.3 -2.2 2.4 62 2.9 SW 52 82 28 44 1010.4 1010.5 2.0
14/07:22am 9.4 -4.1 2.7 63 2.9 SW 63 82 34 44 1010.6 - 2.0
14/07:21am 9.4 -3.0 2.7 63 2.9 SW 57 82 31 44 1010.6 1010.7 2.0
14/07:20am 9.5 1.9 2.8 63 2.9 W 32 80 17 43 1010.6 - 2.0
14/07:19am 9.5 -3.2 2.8 63 2.9 SW 59 80 32 43 1010.6 1010.7 2.0
14/07:04am 9.3 -3.2 1.9 60 3.1 SW 57 78 31 42 1010.4 - 2.0
14/07:03am 9.3 -2.3 1.9 60 3.1 SW 52 78 28 42 1010.4 1010.5 2.0
14/07:02am 9.4 -5.2 2.9 64 2.8 SW 69 78 37 42 1010.6 - 2.0
14/07:01am 9.4 -2.4 2.9 64 2.8 SW 54 78 29 42 1010.6 1010.7 2.0
14/07:00am 9.3 -2.4 3.3 66 2.6 SW 54 72 29 39 1010.6 1010.7 2.0
14/06:59am 9.3 1.5 2.6 63 2.9 SW 33 74 18 40 1010.5 - 2.0
14/06:58am 9.3 -2.5 2.6 63 2.9 SW 54 74 29 40 1010.5 1010.6 2.0
14/06:53am 9.3 -4.0 1.9 60 3.1 SW 61 76 33 41 1010.6 - 2.0
14/06:52am 9.3 -2.6 1.9 60 3.1 SW 54 76 29 41 1010.6 1010.7 2.0
14/06:48am 9.4 0.4 2.5 62 2.9 SW 39 82 21 44 1010.6 - 2.0
14/06:47am 9.4 -3.4 2.5 62 2.9 SW 59 82 32 44 1010.6 1010.7 2.0
14/06:39am 9.4 -3.3 2.9 64 2.8 SW 59 82 32 44 1010.7 - 2.0
14/06:38am 9.4 -3.3 2.9 64 2.8 SW 59 82 32 44 1010.7 1010.8 2.0
14/06:30am 9.4 -4.5 2.9 64 2.8 SW 65 78 35 42 1010.7 1010.8 2.0
14/06:00am 9.3 -4.2 2.6 63 2.9 SW 63 78 34 42 1010.8 1010.9 2.0
14/05:30am 9.5 -2.7 3.7 67 2.5 SW 57 78 31 42 1010.9 1011.0 2.0
14/05:10am 9.5 -2.1 3.7 67 2.5 SW 54 72 29 39 1010.9 - 2.0
14/05:09am 9.5 -2.1 3.7 67 2.5 SW 54 72 29 39 1010.9 1011.0 2.0
14/05:00am 9.4 -4.3 4.0 69 2.4 SW 65 76 35 41 1010.8 1010.9 2.0
14/04:42am 9.2 -2.9 3.2 66 2.6 SW 56 76 30 41 1010.8 - 2.0
14/04:41am 9.2 -2.9 3.2 66 2.6 SW 56 76 30 41 1010.8 1010.9 2.0
14/04:31am 9.2 -4.7 2.5 63 2.8 SW 65 74 35 40 1010.9 - 2.0
14/04:30am 9.2 -2.3 2.5 63 2.8 SW 52 74 28 40 1010.9 1011.0 2.0
14/04:29am 9.3 -1.6 3.3 66 2.6 SW 50 74 27 40 1010.9 1011.0 2.0
14/04:28am 9.3 1.6 3.3 66 2.6 WSW 33 72 18 39 1010.9 - 2.0
14/04:27am 9.3 -1.6 3.3 66 2.6 SW 50 72 27 39 1010.9 1011.0 2.0
14/04:20am 9.4 -2.8 3.6 67 2.5 SW 57 76 31 41 1011.0 - 2.0
14/04:19am 9.4 -2.8 3.6 67 2.5 SW 57 76 31 41 1011.0 1011.1 2.0
14/04:00am 9.4 -4.4 3.2 65 2.7 SW 65 78 35 42 1011.1 1011.2 2.0
14/03:39am 9.5 -2.8 3.0 64 2.8 SW 57 76 31 41 1010.9 - 2.0
14/03:38am 9.5 -2.8 3.0 64 2.8 SW 57 76 31 41 1010.9 1011.0 2.0
14/03:30am 9.4 -0.7 3.8 68 2.5 SW 46 69 25 37 1011.3 1011.4 2.0
14/03:29am 9.4 -2.7 4.0 69 2.4 SW 57 69 31 37 1011.4 - 2.0
14/03:28am 9.4 -0.7 4.0 69 2.4 SW 46 69 25 37 1011.4 1011.5 2.0
14/03:27am 9.4 2.0 4.0 69 2.4 SW 32 69 17 37 1011.2 - 2.0
14/03:26am 9.4 -1.0 4.0 69 2.4 SW 48 69 26 37 1011.2 1011.3 2.0
14/03:00am 9.6 -1.7 3.6 66 2.6 SW 52 65 28 35 1011.7 1011.8 2.0
14/02:50am 9.5 -0.6 3.5 66 2.6 SW 46 65 25 35 1011.8 1011.9 2.0
14/02:43am 9.6 -0.9 3.4 65 2.7 SW 48 69 26 37 1011.6 1011.7 2.0
14/02:42am 9.6 -1.3 3.8 67 2.5 SW 50 69 27 37 1011.7 1011.8 2.0
14/02:30am 9.7 -1.6 3.7 66 2.6 SW 52 70 28 38 1011.9 1012.0 2.0
14/02:22am 9.6 -1.7 3.6 66 2.6 SW 52 70 28 38 1011.6 - 2.0
14/02:21am 9.6 -1.7 3.6 66 2.6 SW 52 70 28 38 1011.6 1011.7 2.0
14/02:00am 9.6 -2.3 4.2 69 2.4 SW 56 72 30 39 1011.7 1011.8 2.0
14/01:55am 9.7 -1.4 4.5 70 2.3 SW 52 70 28 38 1011.8 - 2.0
14/01:54am 9.7 -1.4 4.5 70 2.3 SW 52 70 28 38 1011.8 1011.9 2.0
14/01:30am 9.8 -2.3 4.4 69 2.4 SW 57 70 31 38 1012.1 1012.2 2.0
14/01:00am 9.9 -0.9 4.1 67 2.6 SW 50 65 27 35 1012.3 1012.4 2.0
14/12:30am 10.0 -1.2 4.2 67 2.6 SW 52 65 28 35 1012.3 1012.4 2.0
14/12:00am 10.0 -2.2 3.5 64 2.8 SW 57 65 31 35 1012.5 1012.6 2.0
 
Date/Time
EST
Temp
°C
App
Temp
°C
Dew
Point
°C
Rel
Hum
%
Delta-T
°C
Wind Press
QNH
hPa
Press
MSL
hPa
Rain since
9am
mm
Dir  Spd
km/h
Gust
km/h
Spd
kts
Gust
kts
13/11:30pm 9.9 -2.2 3.4 64 2.8 WSW 56 67 30 36 1012.7 1012.8 2.0
13/11:00pm 10.2 -1.9 4.4 67 2.6 WSW 57 63 31 34 1012.9 1013.0 2.0
13/10:30pm 10.1 -2.0 4.0 66 2.7 SW 57 65 31 35 1013.0 1013.1 2.0
13/10:00pm 10.2 -1.2 5.0 70 2.4 SW 54 61 29 33 1013.4 1013.5 2.0
13/09:30pm 10.2 -0.7 5.6 73 2.1 WSW 52 59 28 32 1013.5 1013.6 2.0
13/09:00pm 10.2 -0.7 5.4 72 2.2 SW 52 61 28 33 1013.5 1013.6 2.0
13/08:57pm 10.1 -2.1 5.5 73 2.1 SW 59 61 32 33 1013.3 - 2.0
13/08:33pm 9.8 1.5 6.0 77 1.8 SW 39 61 21 33 1013.3 - 2.0
13/08:32pm 9.8 1.1 6.0 77 1.8 WSW 41 61 22 33 1013.3 1013.4 2.0
13/08:30pm 10.1 1.1 6.4 78 1.7 WSW 43 57 23 31 1013.7 1013.8 2.0
13/08:00pm 9.7 -0.7 6.1 78 1.7 SW 50 63 27 34 1013.8 1013.9 2.0
13/07:30pm 10.2 -1.2 4.8 69 2.4 SW 54 65 29 35 1013.6 1013.7 2.0
13/07:00pm 10.2 -0.4 5.2 71 2.3 WSW 50 59 27 32 1013.7 1013.8 2.0
13/06:30pm 10.2 -0.3 5.6 73 2.1 SW 50 57 27 31 1013.6 1013.7 2.0
13/06:00pm 9.9 -1.3 5.7 75 1.9 SW 54 65 29 35 1013.4 1013.5 2.0
13/05:30pm 9.8 -0.6 6.0 77 1.8 SW 50 57 27 31 1013.5 1013.6 2.0
13/05:18pm 9.6 -3.0 7.2 85 1.1 SW 63 69 34 37 1013.0 - 2.0
13/05:16pm 9.4 2.1 7.0 85 1.1 WSW 35 69 19 37 1013.1 1013.2 2.0
13/05:14pm 9.5 3.2 7.4 87 1.0 W 30 56 16 30 1013.7 1013.8 2.0
13/05:00pm 8.6 0.8 6.6 87 0.9 W 37 54 20 29 1013.9 1014.0 2.0
13/04:43pm 9.3 -0.1 7.3 87 0.9 WSW 46 65 25 35 1013.3 - 1.6
13/04:42pm 9.3 -0.1 7.3 87 0.9 WSW 46 65 25 35 1013.3 1013.4 1.6
13/04:30pm 10.4 2.4 7.3 81 1.5 SW 39 52 21 28 1013.7 1013.8 1.0
13/04:18pm 9.8 3.1 7.2 84 1.2 SW 32 50 17 27 1013.5 1013.6 1.0
13/04:02pm 10.3 5.8 7.0 80 1.6 NW 20 54 11 29 1013.2 - 1.0
13/04:00pm 10.3 1.4 6.8 79 1.7 WSW 43 54 23 29 1013.2 1013.3 1.0
13/03:37pm 10.3 2.9 6.6 78 1.7 SW 35 54 19 29 1013.4 - 1.0
13/03:36pm 10.3 2.9 6.6 78 1.7 SW 35 54 19 29 1013.4 1013.5 1.0
13/03:30pm 10.5 2.7 6.6 77 1.8 SW 37 50 20 27 1013.4 1013.5 1.0
13/03:00pm 10.5 2.8 7.0 79 1.7 SW 37 46 20 25 1013.8 1013.9 1.0
13/02:30pm 10.0 4.5 7.4 84 1.2 SW 26 48 14 26 1013.5 1013.6 1.0
13/02:24pm 10.1 3.4 7.5 84 1.2 SW 32 50 17 27 1013.5 - 1.0
13/02:23pm 10.1 3.4 7.5 84 1.2 SW 32 50 17 27 1013.5 1013.6 1.0
13/02:02pm 10.0 1.7 7.9 87 1.0 SW 41 52 22 28 1013.4 - 1.0
13/02:01pm 10.0 5.0 7.9 87 1.0 SW 24 52 13 28 1013.4 1013.5 1.0
13/02:00pm 10.0 5.0 8.1 88 0.9 SW 24 46 13 25 1013.3 1013.4 1.0
13/01:30pm 9.8 3.0 7.6 86 1.1 WSW 33 52 18 28 1013.8 1013.9 0.4
13/01:24pm 10.8 4.6 7.7 81 1.5 WSW 30 52 16 28 1013.6 - 0.2
13/01:23pm 10.8 4.6 7.7 81 1.5 WSW 30 52 16 28 1013.6 1013.7 0.2
13/01:00pm 10.1 4.3 8.0 87 1.0 WSW 28 37 15 20 1014.1 1014.2 0.2
13/12:50pm 9.6 2.3 7.2 85 1.1 WSW 35 65 19 35 1013.9 - 0.2
13/12:49pm 9.6 -0.5 7.2 85 1.1 WSW 50 65 27 35 1013.9 1014.0 0.2
13/12:44pm 9.9 -2.0 7.2 83 1.3 WSW 59 65 32 35 1013.3 - 0.2
13/12:43pm 9.9 0.9 7.2 83 1.3 WSW 44 65 24 35 1013.3 1013.4 0.2
13/12:39pm 11.2 3.5 6.9 75 2.1 SW 37 57 20 31 1013.5 - 0.2
13/12:38pm 11.2 3.5 6.9 75 2.1 SW 37 57 20 31 1013.5 1013.6 0.2
13/12:30pm 11.0 2.0 6.2 72 2.3 SW 43 50 23 27 1013.8 1013.9 0.2
13/12:11pm 10.7 4.4 7.4 80 1.6 SW 30 46 16 25 1013.9 1014.0 0.2
13/12:00pm 10.5 4.2 7.6 82 1.4 WSW 30 41 16 22 1014.1 1014.2 0.2
13/11:43am 10.5 4.0 8.3 86 1.1 WSW 32 54 17 29 1014.1 - 0.2
13/11:42am 10.5 4.0 8.3 86 1.1 WSW 32 54 17 29 1014.1 1014.2 0.2
13/11:30am 9.9 3.7 7.8 87 1.0 WSW 30 43 16 23 1014.7 1014.8 0.2
13/11:09am 10.2 4.7 7.4 83 1.3 WSW 26 57 14 31 1014.4 1014.5 0.0
13/11:00am 10.7 6.5 7.4 80 1.6 W 19 43 10 23 1014.6 1014.7 0.0
13/10:55am 11.1 4.5 7.8 80 1.6 WSW 32 43 17 23 1014.6 1014.7 0.0
13/10:44am 11.2 3.6 7.5 78 1.8 WSW 37 50 20 27 1014.7 1014.8 0.0
13/10:40am 11.9 5.7 7.8 76 2.0 WSW 30 48 16 26 1014.6 - 0.0
13/10:38am 12.1 6.3 7.8 75 2.1 WSW 28 46 15 25 1014.8 1015.0 0.0
13/10:30am 11.7 5.4 7.2 74 2.2 WSW 30 39 16 21 1014.9 1015.1 0.0
13/10:00am 11.5 5.1 7.0 74 2.2 WSW 30 39 16 21 1015.0 1015.2 0.0
13/09:30am 11.5 6.8 7.8 78 1.8 WSW 22 35 12 19 1014.8 1015.0 0.0
13/09:00am 11.6 7.3 7.1 74 2.2 WSW 19 30 10 16 1014.7 1014.8 0.0
13/08:30am 11.3 6.8 6.8 74 2.1 WSW 20 32 11 17 1014.6 1014.7 0.0
13/08:00am 11.2 6.6 6.7 74 2.1 W 20 32 11 17 1014.4 1014.5 0.0
13/07:30am 10.8 5.9 6.9 77 1.9 W 22 33 12 18 1014.3 1014.4 0.0
13/07:00am 11.0 5.7 6.9 76 2.0 W 24 33 13 18 1014.0 1014.1 0.0
13/06:30am 10.7 5.5 7.2 79 1.7 W 24 37 13 20 1013.8 1013.9 0.0
13/06:00am 11.0 5.7 6.7 75 2.0 W 24 33 13 18 1013.6 1013.7 0.0
13/05:30am 11.2 6.7 6.9 75 2.1 WSW 20 35 11 19 1013.5 1013.6 0.0
13/05:00am 11.4 6.6 8.8 84 1.3 W 24 35 13 19 1013.4 1013.5 0.0
13/04:30am 11.1 6.3 8.7 85 1.2 W 24 43 13 23 1013.4 1013.5 0.0
13/04:00am 10.9 6.4 8.7 86 1.1 W 22 32 12 17 1013.5 1013.6 0.0
13/03:30am 10.9 6.0 8.3 84 1.3 W 24 37 13 20 1013.4 1013.5 0.0
13/03:00am 11.0 5.4 8.6 85 1.2 W 28 39 15 21 1013.4 1013.5 0.0
13/02:30am 11.2 4.9 9.1 87 1.1 W 32 43 17 23 1013.3 1013.4 0.0
13/02:03am 10.9 5.2 8.3 84 1.3 WNW 28 50 15 27 1013.4 1013.5 0.0
13/02:00am 10.9 5.5 8.1 83 1.4 WNW 26 50 14 27 1013.4 1013.5 0.0
13/01:59am 10.9 5.1 8.1 83 1.4 WNW 28 50 15 27 1013.3 - 0.0
13/01:30am 10.8 6.7 7.7 81 1.5 NW 19 35 10 19 1013.3 1013.4 0.0
13/01:00am 10.9 5.4 7.6 80 1.6 NW 26 39 14 21 1013.4 1013.5 0.0
13/12:30am 11.1 6.9 7.6 79 1.7 WNW 19 39 10 21 1013.6 1013.7 0.0
13/12:00am 11.3 5.4 7.6 78 1.8 WNW 28 43 15 23 1013.6 1013.7 0.0
 
Date/Time
EST
Temp
°C
App
Temp
°C
Dew
Point
°C
Rel
Hum
%
Delta-T
°C
Wind Press
QNH
hPa
Press
MSL
hPa
Rain since
9am
mm
Dir  Spd
km/h
Gust
km/h
Spd
kts
Gust
kts
12/11:44pm 11.3 5.4 7.4 77 1.9 WNW 28 50 15 27 1013.4 1013.5 0.0
12/11:30pm 11.3 6.4 7.0 75 2.1 WNW 22 44 12 24 1013.7 1013.8 0.0
12/11:23pm 11.4 5.4 6.9 74 2.2 NW 28 44 15 24 1013.7 - 0.0
12/11:11pm 11.5 7.0 7.0 74 2.2 WNW 20 43 11 23 1013.6 1013.7 0.0
12/11:00pm 11.4 8.5 6.7 73 2.2 WNW 11 22 6 12 1013.7 1013.8 0.0
12/10:30pm 11.3 5.2 6.6 73 2.2 WNW 28 43 15 23 1013.5 1013.6 0.0

Other formats

Comma delimited format used in spreadsheet applications
http://www.bom.gov.au/fwo/IDV60801/IDV60801.94893.axf

JavaScript Object Notation format (JSON) in row-major order
http://www.bom.gov.au/fwo/IDV60801/IDV60801.94893.json

Data quality

Most of these data are generated automatically and are frequently updated. Quality checks on data are not normally performed. It is possible for incorrect values to appear. Refer to information at About Latest Weather Observations and please check the disclaimer before using these data.